Latest Weather Observations for Gladstone

IDQ60801

Issued at 1:32 am EST Thursday 11 February 2016 (issued every 30 minutes, with the page automatically refreshed every 10 minutes)

About weather observations | Map of weather stations | Latest weather observations for QLD | Other Formats
Station Details ID: 039123 Name: GLADSTONE RADAR Lat: -23.86 Lon: 151.26 Height: 74.5 m
Data from the previous 72 hours. | See also: Recent months at Gladstone
Date/Time
EST
Temp
°C
App
Temp
°C
Dew
Point
Rel
Hum
%
Delta-T
°C
Wind Press
QNH
hPa
Press
MSL
hPa
Rain
since 9 am
mm
Dir
 
Spd
km/h
Gust
km/h
Spd
kts
Gust
kts
11/01:30am 22.9 22.8 19.5 81 2.2 SSE 19 32 10 17 1009.8 1009.3 0.0
11/01:00am 23.0 22.5 19.2 79 2.4 SSE 20 33 11 18 1010.1 1009.6 0.0
11/12:30am 23.0 22.5 18.7 77 2.7 SSE 19 28 10 15 1010.5 1010.0 0.0
11/12:00am 23.2 23.2 18.9 77 2.7 SSE 17 26 9 14 1010.9 1010.4 0.0
 
Date/Time
EST
Temp
°C
App
Temp
°C
Dew
Point
Rel
Hum
%
Delta-T
°C
Wind Press
QNH
hPa
Press
MSL
hPa
Rain
since 9 am
mm
Dir
 
Spd
km/h
Gust
km/h
Spd
kts
Gust
kts
10/11:30pm 23.3 23.7 19.0 77 2.7 SSE 15 22 8 12 1011.2 1010.7 0.0
10/11:00pm 23.7 24.1 19.0 75 3.0 SSE 15 24 8 13 1011.5 1011.0 0.0
10/10:30pm 24.0 24.1 19.1 74 3.1 SE 17 26 9 14 1011.6 1011.1 0.0
10/10:00pm 24.2 24.9 19.7 76 2.9 SE 15 22 8 12 1011.8 1011.3 0.0
10/09:30pm 24.5 24.6 20.0 76 2.9 ESE 19 30 10 16 1011.8 1011.3 0.0
10/09:00pm 24.7 25.0 20.4 77 2.8 ESE 19 30 10 16 1011.8 1011.3 0.0
10/08:30pm 25.0 23.9 20.3 75 3.1 ESE 26 41 14 22 1011.4 1010.9 0.0
10/08:00pm 25.4 24.8 20.6 75 3.2 ESE 24 41 13 22 1011.2 1010.7 0.0
10/07:30pm 25.5 24.4 21.0 76 3.0 ESE 28 43 15 23 1010.7 1010.2 0.0
10/07:00pm 25.6 24.5 20.2 72 3.5 ESE 26 37 14 20 1010.6 1010.1 0.0
10/06:30pm 25.7 25.0 19.6 69 3.9 ESE 22 32 12 17 1010.1 1009.6 0.0
10/06:00pm 26.8 24.5 20.2 67 4.3 ESE 32 46 17 25 1009.6 1009.1 0.0
10/05:30pm 27.1 24.4 19.7 64 4.8 E 33 48 18 26 1009.4 1008.9 0.0
10/05:12pm 27.5 25.9 20.8 67 4.4 E 30 48 16 26 1009.2 1008.7 0.0
10/05:00pm 27.6 26.6 21.2 68 4.3 E 28 39 15 21 1009.3 1008.8 0.0
10/04:30pm 27.7 26.5 20.8 66 4.6 E 28 43 15 23 1009.0 1008.5 0.0
10/04:00pm 28.8 26.4 20.0 59 5.8 E 32 46 17 25 1008.9 1008.4 0.0
10/03:30pm 29.2 28.4 20.9 61 5.5 E 26 37 14 20 1008.9 1008.4 0.0
10/03:00pm 30.1 29.9 20.6 56 6.3 ENE 22 32 12 17 1009.0 1008.5 0.0
10/02:30pm 30.7 31.5 20.6 54 6.7 ENE 17 24 9 13 1009.3 1008.8 0.0
10/02:00pm 30.2 31.2 20.2 55 6.6 E 15 22 8 12 1009.7 1009.2 0.0
10/01:30pm 29.4 29.6 19.4 55 6.5 ESE 17 32 9 17 1010.0 1009.5 0.0
10/01:00pm 29.4 29.4 19.7 56 6.4 ESE 19 26 10 14 1010.6 1010.1 0.0
10/12:30pm 28.1 26.7 18.8 57 6.0 ESE 24 37 13 20 1011.1 1010.6 0.0
10/12:00pm 27.4 27.7 19.7 63 5.0 SE 17 32 9 17 1011.4 1010.9 0.0
10/11:30am 26.9 24.7 19.5 64 4.8 ESE 30 44 16 24 1011.5 1011.0 0.0
10/11:27am 27.1 25.1 19.2 62 5.1 ESE 28 44 15 24 1011.4 1010.9 0.0
10/11:00am 29.1 29.5 19.1 54 6.5 ESE 15 26 8 14 1011.4 1010.9 0.0
10/10:30am 28.5 28.0 17.7 52 6.9 SE 17 30 9 16 1011.6 1011.1 0.0
10/10:00am 29.4 28.9 19.1 54 6.7 SSE 20 35 11 19 1011.4 1010.9 0.0
10/09:30am 28.9 28.5 18.9 54 6.5 SE 19 33 10 18 1011.5 1011.0 0.0
10/09:00am 27.7 26.9 18.4 57 6.0 SE 20 35 11 19 1011.5 1011.0 0.0
10/08:30am 27.3 27.3 18.9 60 5.4 SSE 17 28 9 15 1011.9 1011.4 0.0
10/08:00am 25.0 24.3 18.2 66 4.3 SSE 19 35 10 19 1011.7 1011.2 0.0
10/07:30am 23.6 22.9 18.3 72 3.3 SSE 19 33 10 18 1011.5 1011.0 0.0
10/07:00am 23.6 22.9 18.7 74 3.1 SSE 20 33 11 18 1011.2 1010.7 0.0
10/06:30am 22.8 22.3 18.6 77 2.7 SSE 19 35 10 19 1011.2 1010.7 0.0
10/06:00am 22.2 21.5 18.2 78 2.5 SSE 19 32 10 17 1010.9 1010.4 0.0
10/05:30am 22.1 21.7 18.1 78 2.5 SSE 17 32 9 17 1010.6 1010.1 0.0
10/05:00am 22.1 21.2 18.1 78 2.5 SSE 20 30 11 16 1010.4 1009.9 0.0
10/04:30am 22.1 21.3 18.1 78 2.5 SSE 19 32 10 17 1010.2 1009.7 0.0
10/04:00am 22.2 21.9 18.2 78 2.5 SSE 17 28 9 15 1010.2 1009.7 0.0
10/03:30am 22.2 21.3 18.2 78 2.5 SSE 20 33 11 18 1010.0 1009.5 0.0
10/03:00am 22.4 21.1 18.2 77 2.6 SSE 22 35 12 19 1010.1 1009.6 0.0
10/02:30am 22.5 21.6 18.1 76 2.8 SSE 20 35 11 19 1010.3 1009.8 0.0
10/02:00am 22.5 20.7 17.8 75 2.9 SSE 24 35 13 19 1010.6 1010.1 0.0
10/01:30am 22.4 21.5 17.8 75 2.9 SSE 19 32 10 17 1010.8 1010.3 0.0
10/01:00am 22.6 21.6 17.5 73 3.2 SSE 19 28 10 15 1011.3 1010.8 0.0
10/12:30am 22.8 21.7 17.3 71 3.4 SSE 19 32 10 17 1011.7 1011.2 0.0
10/12:00am 23.1 21.7 17.1 69 3.7 SSE 20 33 11 18 1012.1 1011.6 0.0
 
Date/Time
EST
Temp
°C
App
Temp
°C
Dew
Point
Rel
Hum
%
Delta-T
°C
Wind Press
QNH
hPa
Press
MSL
hPa
Rain
since 9 am
mm
Dir
 
Spd
km/h
Gust
km/h
Spd
kts
Gust
kts
09/11:30pm 23.3 22.0 16.8 67 4.0 SE 19 28 10 15 1012.5 1012.0 0.0
09/11:00pm 23.6 22.3 16.9 66 4.1 SE 19 32 10 17 1012.9 1012.4 0.0
09/10:30pm 24.1 23.7 17.1 65 4.3 SE 15 28 8 15 1013.1 1012.6 0.0
09/10:00pm 24.6 22.2 17.3 64 4.5 SE 26 39 14 21 1013.2 1012.7 0.0
09/09:30pm 24.8 23.2 17.5 64 4.6 SE 22 37 12 20 1013.0 1012.5 0.0
09/09:05pm 25.0 22.4 17.7 64 4.6 ESE 28 46 15 25 1013.0 1012.5 0.0
09/09:00pm 25.1 21.7 17.6 63 4.7 ESE 32 46 17 25 1013.0 1012.5 0.0
09/08:30pm 25.5 21.1 18.4 65 4.5 ESE 39 57 21 31 1012.8 1012.3 0.0
09/08:00pm 25.7 22.0 19.1 67 4.2 ESE 37 56 20 30 1012.7 1012.2 0.0
09/07:30pm 26.0 21.2 18.4 63 4.8 ESE 41 65 22 35 1012.6 1012.1 0.0
09/07:00pm 26.2 22.4 18.9 64 4.7 ESE 37 57 20 31 1012.2 1011.7 0.0
09/06:31pm 26.2 22.8 18.9 64 4.7 E 35 54 19 29 1012.0 1011.5 0.0
09/06:30pm 26.3 22.5 18.9 63 4.8 E 37 54 20 29 1011.9 1011.4 0.0
09/06:05pm 26.5 22.1 18.4 61 5.2 E 39 57 21 31 1011.5 1011.0 0.0
09/06:00pm 26.6 21.9 18.7 62 5.1 E 41 56 22 30 1011.4 1010.9 0.0
09/05:30pm 27.0 22.2 18.3 59 5.5 E 41 56 22 30 1010.8 1010.3 0.0
09/05:03pm 28.0 23.8 19.0 58 5.8 E 39 57 21 31 1010.6 1010.1 0.0
09/05:00pm 27.8 23.0 18.5 57 6.0 E 41 57 22 31 1010.5 1010.0 0.0
09/04:30pm 28.3 24.9 19.8 60 5.6 E 37 52 20 28 1010.5 1010.0 0.0
09/04:19pm 28.1 24.5 19.3 58 5.7 E 37 56 20 30 1010.4 1009.9 0.0
09/04:00pm 28.6 24.6 20.1 60 5.6 E 41 56 22 30 1010.5 1010.0 0.0
09/03:39pm 29.7 26.6 19.7 55 6.6 E 35 54 19 29 1010.5 1010.0 0.0
09/03:30pm 29.5 25.7 19.8 56 6.4 E 39 52 21 28 1010.6 1010.1 0.0
09/03:00pm 30.0 26.7 20.0 55 6.6 E 37 50 20 27 1010.8 1010.3 0.0
09/02:34pm 29.3 25.4 18.7 52 6.8 E 37 56 20 30 1010.8 1010.3 0.0
09/02:30pm 29.9 26.9 19.9 55 6.6 E 35 48 19 26 1011.0 1010.5 0.0
09/02:08pm 29.7 26.1 18.5 51 7.2 E 35 54 19 29 1011.1 1010.6 0.0
09/02:00pm 30.8 28.2 19.8 52 7.3 E 33 48 18 26 1011.3 1010.8 0.0
09/01:30pm 31.2 29.1 18.9 48 8.0 E 28 39 15 21 1011.7 1011.2 0.0
09/01:00pm 31.0 28.9 19.0 48 7.8 ESE 28 41 15 22 1011.9 1011.4 0.0
09/12:30pm 30.7 28.8 19.4 51 7.4 ESE 28 41 15 22 1012.0 1011.5 0.0
09/12:00pm 29.9 27.1 18.3 49 7.5 ESE 30 44 16 24 1012.2 1011.7 0.0
09/11:30am 29.6 26.9 18.4 51 7.2 ESE 30 43 16 23 1012.5 1012.0 0.0
09/11:16am 29.7 27.7 19.1 53 6.9 ESE 28 46 15 25 1012.5 1012.0 0.0
09/11:00am 29.2 27.5 18.9 53 6.7 SE 26 39 14 21 1012.7 1012.2 0.0
09/10:30am 29.3 28.6 19.6 56 6.3 SSE 22 39 12 21 1013.1 1012.6 0.0
09/10:00am 28.4 26.7 19.9 60 5.6 SE 28 48 15 26 1013.1 1012.6 0.0
09/09:38am 27.6 25.6 19.1 59 5.5 SE 28 46 15 25 1013.1 1012.6 0.0
09/09:30am 28.3 27.0 19.8 60 5.6 SE 26 39 14 21 1013.2 1012.7 0.0
09/09:00am 27.5 26.2 19.8 63 5.0 SE 26 43 14 23 1013.0 1012.5 0.0
09/08:30am 26.2 24.3 18.6 63 4.9 SE 26 43 14 23 1013.1 1012.6 0.0
09/08:18am 25.9 23.7 18.6 64 4.7 SE 28 50 15 27 1013.1 1012.6 0.0
09/08:00am 25.5 23.1 19.2 68 4.1 SE 30 41 16 22 1012.9 1012.4 0.0
09/07:38am 24.9 22.4 18.8 69 3.9 SE 30 48 16 26 1012.8 1012.3 0.0
09/07:30am 24.7 23.1 19.1 71 3.6 SE 26 41 14 22 1012.8 1012.3 0.0
09/07:00am 24.4 23.8 19.7 75 3.0 SE 22 39 12 21 1012.9 1012.4 0.0
09/06:30am 23.2 22.5 19.6 80 2.3 SE 22 39 12 21 1012.6 1012.1 0.0
09/06:00am 22.5 21.8 19.5 83 1.9 SE 22 37 12 20 1012.4 1011.9 0.0
09/05:30am 22.2 22.0 19.4 84 1.8 SE 19 30 10 16 1012.1 1011.6 0.0
09/05:00am 22.1 22.5 19.1 83 1.9 SSE 15 28 8 15 1011.7 1011.2 0.0
09/04:30am 22.3 22.3 18.9 81 2.2 SSE 17 28 9 15 1011.6 1011.1 0.0
09/04:00am 22.5 22.1 18.9 80 2.3 SSE 19 26 10 14 1011.4 1010.9 0.0
09/03:30am 22.7 22.3 18.9 79 2.4 SSE 19 28 10 15 1011.3 1010.8 0.0
09/03:00am 22.8 22.7 18.8 78 2.5 SSE 17 33 9 18 1011.2 1010.7 0.0
09/02:30am 23.0 22.3 18.7 77 2.7 SSE 20 28 11 15 1011.4 1010.9 0.0
09/02:00am 23.0 22.5 18.7 77 2.7 SSE 19 28 10 15 1011.8 1011.3 0.0
09/01:30am 23.1 23.0 18.8 77 2.7 SSE 17 24 9 13 1012.1 1011.6 0.0
09/01:00am 23.3 23.1 18.6 75 3.0 SSE 17 26 9 14 1012.4 1011.9 0.0
09/12:30am 23.6 23.5 18.7 74 3.1 SSE 17 24 9 13 1012.8 1012.3 0.0
09/12:00am 24.0 24.4 18.9 73 3.2 SE 15 26 8 14 1013.0 1012.5 0.0
 
Date/Time
EST
Temp
°C
App
Temp
°C
Dew
Point
Rel
Hum
%
Delta-T
°C
Wind Press
QNH
hPa
Press
MSL
hPa
Rain
since 9 am
mm
Dir
 
Spd
km/h
Gust
km/h
Spd
kts
Gust
kts
08/11:30pm 24.5 22.8 18.9 71 3.6 SE 26 39 14 21 1013.1 1012.6 0.0
08/11:00pm 24.8 23.2 19.2 71 3.6 SE 26 41 14 22 1013.2 1012.7 0.0
08/10:30pm 25.1 23.1 19.2 70 3.8 ESE 28 41 15 22 1013.6 1013.2 0.0
08/10:20pm 25.3 22.9 19.2 69 3.9 ESE 30 48 16 26 1013.5 1013.1 0.0
08/10:00pm 25.4 22.7 19.3 69 3.9 ESE 32 48 17 26 1013.3 1012.8 0.0
08/09:30pm 25.5 23.1 19.2 68 4.1 ESE 30 43 16 23 1013.4 1013.0 0.0
08/09:00pm 25.6 23.3 19.3 68 4.1 ESE 30 41 16 22 1013.3 1012.8 0.0
08/08:31pm 25.7 22.8 18.9 66 4.4 ESE 32 50 17 27 1012.9 1012.4 0.0
08/08:30pm 25.7 22.6 18.9 66 4.4 ESE 33 50 18 27 1012.9 1012.4 0.0
08/08:16pm 25.8 23.2 18.7 65 4.5 ESE 30 48 16 26 1012.7 1012.2 0.0
08/08:00pm 25.9 22.8 18.8 65 4.5 ESE 33 50 18 27 1012.7 1012.2 0.0
08/07:39pm 26.0 22.9 18.9 65 4.6 ESE 33 52 18 28 1012.4 1011.9 0.0
08/07:30pm 25.9 23.3 19.5 68 4.1 ESE 32 44 17 24 1012.3 1011.8 0.0
08/07:00pm 26.0 24.0 19.9 69 4.0 E 30 46 16 25 1012.1 1011.6 0.0
08/06:30pm 26.2 22.5 19.1 65 4.6 E 37 54 20 29 1011.6 1011.1 0.0
08/06:02pm 26.5 23.9 19.4 65 4.6 E 32 50 17 27 1011.1 1010.6 0.0
08/06:00pm 26.6 24.5 19.7 66 4.5 E 30 43 16 23 1011.3 1010.8 0.0
08/05:55pm 26.6 23.9 19.7 66 4.5 E 33 52 18 28 1011.3 1010.8 0.0
08/05:30pm 26.9 22.8 18.2 59 5.5 E 37 52 20 28 1010.9 1010.4 0.0
08/05:09pm 27.1 23.3 18.1 58 5.7 E 35 54 19 29 1010.5 1010.0 0.0
08/05:00pm 27.3 23.0 18.6 59 5.6 E 39 52 21 28 1010.4 1009.9 0.0
08/04:30pm 27.4 23.9 19.5 62 5.1 E 37 50 20 27 1010.1 1009.6 0.0
08/04:22pm 27.7 25.5 19.5 61 5.3 E 30 50 16 27 1010.1 1009.6 0.0
08/04:00pm 28.2 25.0 19.4 59 5.7 E 35 50 19 27 1010.1 1009.6 0.0
08/03:53pm 28.2 25.6 18.6 56 6.2 E 30 50 16 27 1009.9 1009.4 0.0
08/03:30pm 29.0 27.3 19.9 58 6.0 E 28 41 15 22 1010.2 1009.7 0.0
08/03:00pm 30.6 29.2 20.5 54 6.7 E 28 41 15 22 1010.5 1010.0 0.0
08/02:30pm 30.0 28.2 20.3 56 6.4 E 30 39 16 21 1010.8 1010.3 0.0
08/02:00pm 29.0 26.0 18.7 53 6.7 E 32 43 17 23 1011.0 1010.5 0.0
08/01:30pm 30.7 28.9 20.3 53 6.9 E 30 41 16 22 1011.3 1010.8 0.0
08/01:00pm 30.5 28.5 19.2 51 7.4 E 28 43 15 23 1011.7 1011.2 0.0
08/12:30pm 30.7 29.6 20.3 53 6.9 E 26 43 14 23 1012.1 1011.6 0.0
08/12:00pm 29.7 29.1 19.7 55 6.6 E 22 35 12 19 1012.5 1012.0 0.0
08/11:30am 28.4 26.9 18.5 55 6.4 ESE 24 39 13 21 1012.8 1012.3 0.0
08/11:00am 28.1 26.7 18.8 57 6.0 ESE 24 39 13 21 1012.9 1012.4 0.0
08/10:30am 28.3 27.4 19.0 57 6.0 SE 22 32 12 17 1013.4 1013.0 0.0
08/10:00am 27.4 25.3 18.1 57 5.9 ESE 26 39 14 21 1013.3 1012.8 0.0
08/09:30am 27.7 27.2 19.0 59 5.6 SE 20 32 11 17 1013.5 1013.1 0.0
08/09:00am 26.4 25.9 19.0 63 4.8 SE 20 35 11 19 1013.5 1013.1 0.2
08/08:30am 25.3 23.7 19.2 69 3.9 SE 26 43 14 23 1013.4 1013.0 0.2
08/08:00am 24.6 23.1 19.4 73 3.3 SE 26 37 14 20 1013.4 1013.0 0.2
08/07:30am 24.0 22.9 19.5 76 2.9 SSE 24 41 13 22 1013.2 1012.7 0.2
08/07:00am 23.7 22.6 19.4 77 2.8 SSE 24 33 13 18 1012.8 1012.3 0.2
08/06:30am 23.5 22.4 19.4 78 2.6 SSE 24 37 13 20 1012.8 1012.3 0.2
08/06:00am 23.2 23.0 19.8 81 2.2 SSE 20 32 11 17 1012.3 1011.8 0.2
08/05:30am 23.1 22.6 19.9 82 2.1 SSE 22 37 12 20 1012.4 1011.9 0.2
08/05:00am 23.2 23.2 19.8 81 2.2 SE 19 32 10 17 1012.2 1011.7 0.2
08/04:30am 23.3 22.8 19.9 81 2.2 SSE 22 35 12 19 1011.8 1011.3 0.2
08/04:00am 23.3 23.3 20.1 82 2.1 SSE 20 33 11 18 1011.7 1011.2 0.2
08/03:30am 23.3 22.5 20.1 82 2.1 SE 24 43 13 23 1011.5 1011.0 0.2
08/03:00am 23.3 22.9 20.2 83 2.0 SE 22 35 12 19 1011.5 1011.0 0.2
08/02:30am 23.2 23.2 20.2 83 1.9 SSE 20 33 11 18 1011.4 1010.9 0.2
08/02:00am 23.3 23.6 20.4 84 1.9 SE 19 26 10 14 1011.7 1011.2 0.2

Other Formats:

Comma delimited format used in spreadsheet applications
http://www.bom.gov.au/fwo/IDQ60801/IDQ60801.94380.axf

JavaScript Object Notation format (JSON) in row-major order
http://www.bom.gov.au/fwo/IDQ60801/IDQ60801.94380.json